Etusivu
METAR-TAF:

METAR-TAF

Lentoasemat :

Koror, Babeldaob, Palau

Leveyspiiri: 07-22N, Pituuspiiri: 134-32E, korkeus merenpinnasta: 54 m

Tämänhetkinen sää

Tämä raportti tehtiin 13 minuuttia sitten, kello 12.50 UTC
tyyntä
Lämpötila 26°C
Kosteus 89%
Ilmanpaine 1012 hPa
Näkyvyys: 24.1 km
Hajanaisia pilviä 1600 ft:n korkeudessa
Hajonneita pilviä 30000 ft:n korkeudessa

METAR: PTRO 221250Z COR 00000KT 15SM SCT016 BKN300 26/24 A2987

Aika: 22:03 (13:03 UTC)

Sääennuste

Tämä raportti tehtiin 1 tunti ja 27 minuuttia sitten, kello 11.36 UTC
Ennuste voimassa 22. päivästä klo 12 UTC - 23. päivään klo 12 UTC
Tuuli 5 kn eri suunnista
Näkyvyys: 10 km
Hajanaisia pilviä 1600 ft:n korkeudessa
Hajonneita pilviä 12000 ft:n korkeudessa
sadekuuroja näköpiirissä

TAF: PTRO 221136Z 2212/2312 VRB05KT P6SM VCSH SCT016 BKN120

Säähavainnot ja -ennusteet yli 4000 lentoasemalta (METAR- ja TAF-raportit).

Käytössä olevat sääasemat on merkitty karttaan keltaisilla ja punaisilla pisteillä.

Aseta hiiri pisteen päälle nähdäksesi sääaseman nimen.

Klikkaa sitten nähdäksesi säähavainnot ja -ennusteet.

Kartan vaihtaminen: klikkaa mustalla rastilla varustettuja vihreitä pisteitä, niin voit zoomata sisään; viivalla varustettua vihreää pistettä, niin voit zoomata ulos tai vihreitä nuolia, niin pääset viereisille kartoille.


METAR-TAF: